Latest Weather Observations for Forrest

IDW60801

Issued at 5:43 pm WST Sunday 24 January 2021 (issued every 10 minutes, with the page automatically refreshed every 10 minutes)

About weather observations | Map of weather stations | Latest weather observations for WA | Other Formats
Station Details ID: 011052 Name: FORREST Lat: -30.85 Lon: 128.11 Height: 159.0 m
Data from the previous 72 hours. | See also: Recent months at Forrest
Date/Time
WST
Temp
°C
App
Temp
°C
Dew
Point
°C
Rel
Hum
%
Delta-T
°C
Wind Press
QNH
hPa
Press
MSL
hPa
Rain since
9am
mm
Dir  Spd
km/h
Gust
km/h
Spd
kts
Gust
kts
24/05:30pm 28.8 30.3 18.9 55 6.5 E 9 15 5 8 1000.1 999.2 0.6
24/05:00pm 28.5 29.5 18.6 55 6.4 ENE 11 17 6 9 1000.1 999.2 0.6
24/04:30pm 28.4 29.2 19.1 57 6.0 ENE 13 19 7 10 1000.1 999.2 0.6
24/04:00pm 27.7 28.1 19.8 62 5.2 NE 17 20 9 11 1000.3 999.4 0.6
24/03:30pm 28.3 28.2 18.7 56 6.2 E 17 26 9 14 1000.4 999.5 0.6
24/03:00pm 28.6 29.0 19.0 56 6.3 ESE 15 22 8 12 1000.6 999.7 0.6
24/02:30pm 27.7 28.1 19.0 59 5.6 ENE 15 24 8 13 1001.0 1000.2 0.6
24/02:00pm 27.4 26.9 19.2 61 5.3 ENE 20 32 11 17 1001.4 1000.6 0.6
24/01:30pm 26.7 25.0 19.8 66 4.5 ENE 28 32 15 17 1001.8 1001.0 0.4
24/01:00pm 26.5 26.1 20.1 68 4.2 NE 22 32 12 17 1002.2 1001.4 0.4
24/12:30pm 25.6 27.6 21.5 78 2.7 ESE 13 17 7 9 1002.7 1001.9 0.4
24/12:00pm 24.4 26.6 21.9 86 1.7 ESE 13 19 7 10 1003.0 1002.2 0.4
24/11:49am 23.5 24.9 21.0 86 1.6 E 15 20 8 11 1003.2 1002.4 0.4
24/11:30am 23.1 23.0 21.4 90 1.1 ENE 24 30 13 16 1003.6 1002.8 0.4
24/11:07am 23.8 22.4 20.5 82 2.2 NNE 28 35 15 19 1003.9 1003.1 0.0
24/11:00am 24.5 23.1 20.4 78 2.7 NE 28 35 15 19 1003.8 1003.0 0.0
24/10:36am 26.7 23.2 18.0 59 5.5 ENE 33 52 18 28 1003.7 1002.9 0.0
24/10:30am 26.9 24.1 18.2 59 5.6 ENE 30 39 16 21 1003.8 1003.0 0.0
24/10:00am 26.1 25.7 18.8 64 4.7 ENE 19 28 10 15 1004.1 1003.3 0.0
24/09:30am 24.9 26.5 19.9 74 3.3 ENE 11 15 6 8 1004.4 1003.6 0.0
24/09:00am 23.5 24.9 20.4 83 2.0 NE 13 17 7 9 1004.9 1004.0 0.8
24/08:54am 23.5 24.7 20.6 84 1.9 NE 15 19 8 10 1005.0 1004.1 0.8
24/08:30am 23.8 22.5 19.9 79 2.5 NE 26 32 14 17 1005.4 1004.5 0.0
24/08:00am 25.5 21.2 18.7 66 4.4 NE 39 50 21 27 1005.2 1004.3 0.0
24/07:30am 27.4 21.7 17.6 55 6.2 NNE 44 57 24 31 1004.7 1003.9 0.0
24/07:22am 28.0 24.8 17.2 52 6.8 NNE 30 56 16 30 1004.6 1003.8 0.0
24/07:00am 27.7 26.0 17.3 53 6.6 NNE 22 32 12 17 1004.4 1003.6 0.0
24/06:30am 26.6 23.8 17.4 57 5.8 NNE 28 37 15 20 1004.5 1003.7 0.0
24/06:00am 25.5 24.1 17.9 63 4.8 NE 22 26 12 14 1004.4 1003.6 0.0
24/05:30am 24.9 23.9 17.9 65 4.4 NE 20 26 11 14 1004.1 1003.3 0.0
24/05:00am 24.9 24.8 16.9 61 5.0 NNE 13 17 7 9 1003.9 1003.1 0.0
24/04:30am 24.9 25.4 16.6 60 5.1 NE 9 13 5 7 1003.6 1002.8 0.0
24/04:00am 25.1 26.9 16.5 59 5.3 NE 2 7 1 4 1003.1 1002.3 0.0
24/03:30am 25.3 26.1 16.4 57 5.5 NE 7 9 4 5 1002.8 1002.0 0.0
24/03:00am 25.2 26.1 16.6 59 5.4 NNE 7 9 4 5 1002.7 1001.9 0.0
24/02:30am 25.3 26.7 16.4 57 5.5 NNE 4 9 2 5 1002.9 1002.1 0.0
24/02:00am 25.4 25.5 16.5 58 5.5 NNE 11 13 6 7 1003.3 1002.5 0.0
24/01:30am 25.5 25.4 16.9 59 5.4 NE 13 15 7 8 1003.9 1003.1 0.0
24/01:00am 25.5 25.5 17.2 60 5.2 NE 13 19 7 10 1003.8 1003.0 0.0
24/12:30am 25.6 24.7 17.8 62 4.9 NE 19 22 10 12 1004.4 1003.6 0.0
24/12:00am 25.7 25.1 17.6 61 5.1 ENE 17 22 9 12 1004.4 1003.6 0.0
 
Date/Time
WST
Temp
°C
App
Temp
°C
Dew
Point
°C
Rel
Hum
%
Delta-T
°C
Wind Press
QNH
hPa
Press
MSL
hPa
Rain since
9am
mm
Dir  Spd
km/h
Gust
km/h
Spd
kts
Gust
kts
23/11:30pm 25.6 25.0 17.5 61 5.1 E 17 20 9 11 1004.2 1003.4 0.0
23/11:00pm 25.1 23.1 18.3 66 4.3 E 26 30 14 16 1004.1 1003.3 0.0
23/10:30pm 24.9 23.3 18.4 67 4.1 E 24 30 13 16 1004.4 1003.6 0.0
23/10:00pm 25.8 22.6 18.2 63 4.8 ENE 32 35 17 19 1005.8 1004.9 0.0
23/09:30pm 26.3 23.1 18.2 61 5.2 E 32 39 17 21 1006.0 1005.1 0.0
23/09:12pm 26.9 24.7 17.9 57 5.7 ENE 26 48 14 26 1006.8 1006.0 0.0
23/09:00pm 27.4 25.8 16.4 51 6.9 ENE 20 28 11 15 1006.9 1006.1 0.0
23/08:30pm 28.7 25.4 14.1 40 8.8 NE 24 28 13 15 1006.8 1006.0 0.0
23/08:00pm 29.0 25.1 13.2 37 9.4 NE 26 32 14 17 1006.7 1005.9 0.0
23/07:30pm 29.4 25.0 12.8 36 9.9 NE 28 32 15 17 1006.4 1005.6 0.0
23/07:00pm 29.4 25.6 13.6 38 9.5 NNE 26 32 14 17 1006.8 1006.0 0.0
23/06:36pm 30.5 25.3 11.5 31 11.1 NNE 30 48 16 26 1006.7 1005.9 0.0
23/06:30pm 30.6 26.1 11.5 30 11.2 NNE 26 32 14 17 1006.6 1005.8 0.0
23/06:00pm 31.2 25.6 12.1 31 11.3 NNE 33 43 18 23 1006.1 1005.2 0.0
23/05:30pm 31.6 25.2 11.9 30 11.6 N 37 50 20 27 1005.8 1004.9 0.0
23/05:00pm 32.3 25.1 12.0 29 12.1 N 41 52 22 28 1005.5 1004.6 0.0
23/04:30pm 32.5 25.6 11.6 28 12.3 NNW 39 50 21 27 1005.4 1004.5 0.0
23/04:00pm 32.5 25.9 12.7 30 11.9 NNW 39 52 21 28 1005.4 1004.5 0.0
23/03:30pm 32.4 26.2 12.6 30 11.9 NW 37 52 20 28 1005.3 1004.4 0.0
23/03:00pm 33.1 28.6 13.7 31 11.9 NW 30 37 16 20 1005.4 1004.5 0.0
23/02:30pm 32.5 27.9 14.6 34 11.0 NW 32 41 17 22 1005.8 1004.9 0.0
23/02:00pm 32.5 24.7 15.1 35 10.8 NW 50 61 27 33 1005.9 1005.0 0.0
23/01:30pm 34.3 29.2 13.7 29 12.6 WNW 33 52 18 28 1006.3 1005.4 0.0
23/01:26pm 34.4 29.5 13.8 29 12.7 WNW 32 52 17 28 1006.1 1005.2 0.0
23/01:00pm 34.2 28.9 14.1 29 12.4 WNW 35 46 19 25 1005.9 1005.0 0.0
23/12:30pm 35.1 30.1 13.3 27 13.3 WNW 32 48 17 26 1005.8 1004.9 0.0
23/12:00pm 35.7 32.1 13.2 26 13.8 W 24 33 13 18 1005.5 1004.6 0.0
23/11:30am 36.1 32.1 14.1 26 13.7 W 28 35 15 19 1005.4 1004.5 0.0
23/11:00am 35.5 31.3 13.6 26 13.5 W 28 37 15 20 1005.7 1004.8 0.0
23/10:30am 34.8 30.4 13.0 26 13.3 W 28 39 15 21 1005.8 1004.9 0.0
23/10:00am 34.6 29.8 12.9 27 13.2 W 30 39 16 21 1005.9 1005.0 0.0
23/09:30am 34.3 29.6 13.2 28 12.8 WNW 30 39 16 21 1006.1 1005.2 0.0
23/09:00am 34.3 30.4 13.2 28 12.9 WSW 26 33 14 18 1006.1 1005.2 0.0
23/08:30am 34.2 30.9 14.1 29 12.4 WSW 24 32 13 17 1006.2 1005.3 0.0
23/08:00am 33.2 30.2 13.8 31 11.9 WSW 22 30 12 16 1006.4 1005.6 0.0
23/07:30am 32.1 29.9 13.3 31 11.4 WSW 17 22 9 12 1006.4 1005.6 0.0
23/07:00am 31.0 28.7 11.9 31 11.3 SW 15 17 8 9 1006.0 1005.1 0.0
23/06:30am 30.2 27.7 11.2 31 11.0 SSW 15 19 8 10 1005.5 1004.6 0.0
23/06:00am 29.3 26.8 10.9 32 10.6 SW 15 19 8 10 1005.3 1004.4 0.0
23/05:30am 28.6 25.1 10.3 32 10.4 SW 19 22 10 12 1004.7 1003.9 0.0
23/05:00am 28.1 24.4 9.4 31 10.5 SSW 19 22 10 12 1004.3 1003.5 0.0
23/04:30am 29.1 25.4 9.3 29 11.1 SW 19 20 10 11 1004.3 1003.5 0.0
23/04:00am 29.4 25.5 9.5 29 11.2 WSW 20 24 11 13 1004.1 1003.3 0.0
23/03:30am 29.9 25.6 7.8 25 12.1 W 20 26 11 14 1004.2 1003.4 0.0
23/03:00am 29.3 25.8 7.2 25 12.0 SW 15 19 8 10 1004.0 1003.2 0.0
23/02:30am 29.6 26.7 6.3 23 12.4 N 11 15 6 8 1003.9 1003.1 0.0
23/02:00am 30.6 26.9 6.5 22 13.0 N 15 19 8 10 1004.0 1003.2 0.0
23/01:30am 30.1 27.2 6.7 23 12.6 NNE 11 17 6 9 1004.1 1003.3 0.0
23/01:00am 31.3 28.3 7.7 23 13.1 E 13 19 7 10 1003.2 1002.4 0.0
23/12:30am 32.1 26.6 7.7 22 13.5 E 26 33 14 18 1002.6 1001.8 0.0
23/12:00am 31.5 30.5 7.2 22 13.4 NNW 2 6 1 3 1002.1 1001.3 0.0
 
Date/Time
WST
Temp
°C
App
Temp
°C
Dew
Point
°C
Rel
Hum
%
Delta-T
°C
Wind Press
QNH
hPa
Press
MSL
hPa
Rain since
9am
mm
Dir  Spd
km/h
Gust
km/h
Spd
kts
Gust
kts
22/11:30pm 32.6 30.1 6.7 20 14.2 NNW 9 11 5 6 1002.4 1001.6 0.0
22/11:00pm 33.7 30.5 6.9 19 14.8 NNW 13 17 7 9 1002.9 1002.1 0.0
22/10:30pm 36.0 31.5 6.2 16 16.4 NNW 19 32 10 17 1002.8 1002.0 0.0
22/10:00pm 34.1 29.5 8.0 20 14.7 W 22 30 12 16 1003.2 1002.4 0.0
22/09:30pm 34.2 29.5 9.4 22 14.3 WNW 24 30 13 16 1003.7 1002.9 0.0
22/09:00pm 34.7 29.4 8.4 20 15.0 WNW 26 32 14 17 1003.8 1003.0 0.0
22/08:47pm 36.7 30.8 7.7 17 16.4 NNW 28 46 15 25 1004.1 1003.3 0.0
22/08:30pm 35.0 29.4 8.7 20 15.0 NW 28 33 15 18 1004.6 1003.8 0.0
22/08:00pm 35.4 28.2 9.0 20 15.2 NNW 37 44 20 24 1004.4 1003.6 0.0
22/07:30pm 35.7 29.7 8.5 19 15.5 N 30 43 16 23 1004.5 1003.7 0.0
22/07:29pm 35.7 30.0 8.5 19 15.5 N 28 43 15 23 1004.5 1003.7 0.0
22/07:00pm 36.2 32.5 6.4 16 16.6 NW 15 17 8 9 1003.8 1003.0 0.0
22/06:30pm 37.0 31.5 6.1 15 17.1 NW 24 32 13 17 1003.7 1002.9 0.0
22/06:00pm 37.3 30.6 7.3 16 17.0 NW 32 39 17 21 1002.9 1002.1 0.0
22/05:47pm 37.4 28.0 7.3 16 17.0 NW 46 65 25 35 1002.6 1001.8 0.0
22/05:30pm 37.8 27.4 7.7 16 17.1 NNW 52 67 28 36 1002.4 1001.6 0.0
22/05:11pm 39.2 32.5 5.7 13 18.6 N 30 69 16 37 1001.4 1000.6 0.0
22/05:10pm 39.6 33.8 6.1 13 18.8 N 26 61 14 33 1001.5 1000.7 0.0
22/05:00pm 41.9 37.5 2.6 9 21.2 NNW 15 20 8 11 1001.4 1000.6 0.0
22/04:30pm 42.6 38.4 1.4 8 21.9 NW 13 19 7 10 1001.3 1000.5 0.0
22/04:00pm 43.7 38.8 2.2 8 22.5 WNW 17 30 9 16 1001.1 1000.3 0.0
22/03:30pm 43.9 40.7 0.5 7 22.9 NW 7 13 4 7 1001.3 1000.5 0.0
22/03:00pm 43.6 40.0 0.3 7 22.8 WNW 9 15 5 8 1001.7 1000.9 0.0
22/02:30pm 43.7 39.3 0.4 7 22.8 NNW 13 20 7 11 1002.0 1001.2 0.0
22/02:00pm 42.7 38.5 1.5 8 22.0 N 13 20 7 11 1002.5 1001.7 0.0
22/01:30pm 43.4 37.8 0.1 7 22.7 NNE 19 37 10 20 1003.0 1002.2 0.0
22/01:00pm 44.1 39.0 0.7 7 23.1 NE 17 24 9 13 1003.5 1002.7 0.0
22/12:30pm 42.3 36.9 1.2 8 21.7 NE 19 32 10 17 1003.9 1003.1 0.0
22/12:00pm 42.0 37.2 2.6 9 21.3 NE 17 30 9 16 1004.5 1003.7 0.0
22/11:30am 41.4 36.2 3.7 10 20.6 NE 20 32 11 17 1005.1 1004.2 0.0
22/11:00am 39.8 33.7 2.5 10 19.9 NE 24 37 13 20 1005.7 1004.8 0.0
22/10:30am 38.8 32.0 3.1 11 19.0 ENE 28 37 15 20 1006.1 1005.2 0.0
22/10:00am 36.4 29.5 2.5 12 17.7 NE 28 33 15 18 1006.6 1005.8 0.0
22/09:30am 35.4 28.5 2.8 13 17.0 ENE 28 35 15 19 1007.2 1006.4 0.0
22/09:00am 34.3 26.5 2.0 13 16.6 ENE 32 37 17 20 1007.4 1006.6 0.0
22/08:30am 33.3 26.3 2.2 14 15.9 ENE 28 39 15 21 1007.5 1006.7 0.0
22/08:00am 31.7 24.7 1.9 15 15.0 ENE 28 33 15 18 1007.9 1007.1 0.0
22/07:30am 30.5 23.2 2.7 17 14.0 E 30 35 16 19 1008.0 1007.2 0.0
22/07:00am 28.0 21.2 3.0 20 12.5 E 28 33 15 18 1008.2 1007.4 0.0
22/06:30am 26.2 20.9 2.8 22 11.5 ESE 20 26 11 14 1008.4 1007.6 0.0
22/06:00am 25.7 21.2 2.4 22 11.4 SE 15 20 8 11 1008.4 1007.6 0.0
22/05:30am 24.5 21.3 3.2 25 10.4 E 9 15 5 8 1008.2 1007.4 0.0
22/05:00am 23.4 18.3 2.8 26 10.0 E 19 22 10 12 1007.5 1006.7 0.0
22/04:30am 23.1 18.0 3.1 27 9.7 E 19 26 10 14 1007.4 1006.6 0.0
22/04:00am 23.1 18.4 3.1 27 9.7 ESE 17 19 9 10 1007.5 1006.7 0.0
22/03:30am 23.7 18.4 3.1 26 10.0 E 20 26 11 14 1007.3 1006.5 0.0
22/03:00am 24.3 19.3 3.6 26 10.2 E 19 26 10 14 1007.4 1006.6 0.0
22/02:30am 24.0 19.3 3.3 26 10.1 E 17 20 9 11 1007.5 1006.7 0.0
22/02:00am 24.4 19.7 3.1 25 10.4 E 17 22 9 12 1007.5 1006.7 0.0
22/01:30am 24.8 20.2 3.5 25 10.5 E 17 22 9 12 1007.6 1006.8 0.0
22/01:00am 24.9 19.6 3.0 24 10.8 E 20 26 11 14 1007.6 1006.8 0.0
22/12:30am 25.4 20.2 3.4 24 10.9 E 20 26 11 14 1007.6 1006.8 0.0
22/12:00am 25.9 20.0 3.8 24 11.1 E 24 32 13 17 1007.8 1007.0 0.0
 
Date/Time
WST
Temp
°C
App
Temp
°C
Dew
Point
°C
Rel
Hum
%
Delta-T
°C
Wind Press
QNH
hPa
Press
MSL
hPa
Rain since
9am
mm
Dir  Spd
km/h
Gust
km/h
Spd
kts
Gust
kts
21/11:30pm 25.4 19.5 4.0 25 10.7 E 24 28 13 15 1007.7 1006.9 0.0
21/11:00pm 25.8 20.7 4.3 25 10.9 E 20 26 11 14 1007.7 1006.9 0.0
21/10:30pm 26.4 21.3 4.2 24 11.2 ESE 20 26 11 14 1007.7 1006.9 0.0
21/10:00pm 27.2 21.8 4.3 23 11.7 ESE 22 28 12 15 1007.6 1006.8 0.0
21/09:30pm 28.3 23.3 4.6 22 12.2 ESE 20 26 11 14 1007.7 1006.9 0.0
21/09:00pm 29.8 23.6 4.4 20 13.2 ESE 26 30 14 16 1007.7 1006.9 0.0
21/08:30pm 30.7 23.8 4.4 19 13.7 E 30 35 16 19 1007.5 1006.7 0.0
21/08:00pm 31.9 24.0 4.6 18 14.4 ESE 35 46 19 25 1007.5 1006.7 0.0
21/07:30pm 32.8 25.4 6.9 20 14.2 ESE 35 43 19 23 1007.2 1006.4 0.0
21/07:00pm 33.9 27.0 6.3 18 15.1 ESE 32 41 17 22 1007.1 1006.3 0.0
21/06:30pm 35.4 28.4 5.8 16 16.2 ESE 32 39 17 21 1007.0 1006.2 0.0
21/06:00pm 37.1 33.2 5.2 14 17.5 SE 15 39 8 21 1006.8 1006.0 0.0

Other formats

Comma delimited format used in spreadsheet applications
http://www.bom.gov.au/fwo/IDW60801/IDW60801.95646.axf

JavaScript Object Notation format (JSON) in row-major order
http://www.bom.gov.au/fwo/IDW60801/IDW60801.95646.json

Data quality

Most of these data are generated automatically and are frequently updated. Quality checks on data are not normally performed. It is possible for incorrect values to appear. Refer to information at About Latest Weather Observations and please check the disclaimer before using these data.